sensor_id;sensor_type;location;lat;lon;timestamp;P1;durP1;ratioP1;P2;durP2;ratioP2
22034;SDS011;11181;51.002;4.356;2023-03-23T00:01:26;5.63;;;3.50;;
22034;SDS011;11181;51.002;4.356;2023-03-23T00:03:55;5.13;;;3.80;;
22034;SDS011;11181;51.002;4.356;2023-03-23T00:06:23;4.60;;;3.27;;
22034;SDS011;11181;51.002;4.356;2023-03-23T00:08:53;4.27;;;3.07;;
22034;SDS011;11181;51.002;4.356;2023-03-23T00:11:25;5.30;;;3.50;;
22034;SDS011;11181;51.002;4.356;2023-03-23T00:13:54;4.33;;;3.30;;
22034;SDS011;11181;51.002;4.356;2023-03-23T00:16:26;3.17;;;2.73;;
22034;SDS011;11181;51.002;4.356;2023-03-23T00:18:58;4.87;;;3.60;;
22034;SDS011;11181;51.002;4.356;2023-03-23T00:21:27;3.87;;;2.90;;
22034;SDS011;11181;51.002;4.356;2023-03-23T00:24:02;3.93;;;3.20;;
22034;SDS011;11181;51.002;4.356;2023-03-23T00:26:31;3.10;;;2.50;;
22034;SDS011;11181;51.002;4.356;2023-03-23T00:29:00;4.57;;;3.53;;
22034;SDS011;11181;51.002;4.356;2023-03-23T00:31:28;4.40;;;3.17;;
22034;SDS011;11181;51.002;4.356;2023-03-23T00:34:00;4.53;;;2.70;;
22034;SDS011;11181;51.002;4.356;2023-03-23T00:36:29;7.47;;;3.97;;
22034;SDS011;11181;51.002;4.356;2023-03-23T00:38:56;5.80;;;3.03;;
22034;SDS011;11181;51.002;4.356;2023-03-23T00:41:25;6.50;;;3.40;;
22034;SDS011;11181;51.002;4.356;2023-03-23T00:43:53;4.00;;;3.00;;
22034;SDS011;11181;51.002;4.356;2023-03-23T00:46:22;3.47;;;2.97;;
22034;SDS011;11181;51.002;4.356;2023-03-23T00:48:49;2.93;;;2.60;;
22034;SDS011;11181;51.002;4.356;2023-03-23T00:51:17;3.70;;;3.30;;
22034;SDS011;11181;51.002;4.356;2023-03-23T00:53:44;3.23;;;2.90;;
22034;SDS011;11181;51.002;4.356;2023-03-23T00:56:12;4.57;;;3.30;;
22034;SDS011;11181;51.002;4.356;2023-03-23T00:58:41;4.00;;;2.90;;
22034;SDS011;11181;51.002;4.356;2023-03-23T01:01:08;6.03;;;3.50;;
22034;SDS011;11181;51.002;4.356;2023-03-23T01:03:35;3.00;;;2.63;;
22034;SDS011;11181;51.002;4.356;2023-03-23T01:06:07;4.13;;;2.60;;
22034;SDS011;11181;51.002;4.356;2023-03-23T01:08:37;3.43;;;2.63;;
22034;SDS011;11181;51.002;4.356;2023-03-23T01:11:10;2.73;;;2.10;;
22034;SDS011;11181;51.002;4.356;2023-03-23T01:13:38;2.50;;;1.90;;
22034;SDS011;11181;51.002;4.356;2023-03-23T01:16:07;4.57;;;2.47;;
22034;SDS011;11181;51.002;4.356;2023-03-23T01:18:34;2.97;;;2.23;;
22034;SDS011;11181;51.002;4.356;2023-03-23T01:21:03;5.97;;;3.33;;
22034;SDS011;11181;51.002;4.356;2023-03-23T01:23:31;2.97;;;2.73;;
22034;SDS011;11181;51.002;4.356;2023-03-23T01:26:02;3.77;;;2.30;;
22034;SDS011;11181;51.002;4.356;2023-03-23T01:28:29;3.67;;;2.30;;
22034;SDS011;11181;51.002;4.356;2023-03-23T01:30:59;4.63;;;2.83;;
22034;SDS011;11181;51.002;4.356;2023-03-23T01:33:28;3.13;;;2.60;;
22034;SDS011;11181;51.002;4.356;2023-03-23T01:35:55;3.90;;;2.47;;
22034;SDS011;11181;51.002;4.356;2023-03-23T01:38:23;3.13;;;2.40;;
22034;SDS011;11181;51.002;4.356;2023-03-23T01:40:50;4.53;;;2.43;;
22034;SDS011;11181;51.002;4.356;2023-03-23T01:43:16;3.93;;;2.33;;
22034;SDS011;11181;51.002;4.356;2023-03-23T01:45:43;2.60;;;2.00;;
22034;SDS011;11181;51.002;4.356;2023-03-23T01:48:12;4.37;;;2.60;;
22034;SDS011;11181;51.002;4.356;2023-03-23T01:50:46;3.20;;;2.60;;
22034;SDS011;11181;51.002;4.356;2023-03-23T01:53:19;5.70;;;2.30;;
22034;SDS011;11181;51.002;4.356;2023-03-23T01:55:47;4.70;;;3.03;;
22034;SDS011;11181;51.002;4.356;2023-03-23T01:58:16;3.03;;;2.37;;
22034;SDS011;11181;51.002;4.356;2023-03-23T02:00:45;3.70;;;2.43;;
22034;SDS011;11181;51.002;4.356;2023-03-23T02:03:13;4.73;;;2.90;;
22034;SDS011;11181;51.002;4.356;2023-03-23T02:05:42;3.27;;;2.60;;
22034;SDS011;11181;51.002;4.356;2023-03-23T02:08:11;3.23;;;2.50;;
22034;SDS011;11181;51.002;4.356;2023-03-23T02:10:40;2.70;;;2.10;;
22034;SDS011;11181;51.002;4.356;2023-03-23T02:13:08;3.63;;;2.37;;
22034;SDS011;11181;51.002;4.356;2023-03-23T02:15:42;2.90;;;1.87;;
22034;SDS011;11181;51.002;4.356;2023-03-23T02:18:16;5.10;;;2.10;;
22034;SDS011;11181;51.002;4.356;2023-03-23T02:21:04;2.63;;;2.20;;
22034;SDS011;11181;51.002;4.356;2023-03-23T02:23:58;4.67;;;1.93;;
22034;SDS011;11181;51.002;4.356;2023-03-23T02:26:55;3.87;;;2.10;;
22034;SDS011;11181;51.002;4.356;2023-03-23T02:29:37;3.77;;;1.80;;
22034;SDS011;11181;51.002;4.356;2023-03-23T02:32:18;2.13;;;1.93;;
22034;SDS011;11181;51.002;4.356;2023-03-23T02:35:00;4.30;;;1.50;;
22034;SDS011;11181;51.002;4.356;2023-03-23T02:37:34;3.73;;;2.00;;
22034;SDS011;11181;51.002;4.356;2023-03-23T02:40:06;2.83;;;1.70;;
22034;SDS011;11181;51.002;4.356;2023-03-23T02:42:38;3.43;;;1.93;;
22034;SDS011;11181;51.002;4.356;2023-03-23T02:45:08;1.77;;;1.30;;
22034;SDS011;11181;51.002;4.356;2023-03-23T02:47:38;4.77;;;1.97;;
22034;SDS011;11181;51.002;4.356;2023-03-23T02:50:10;3.90;;;1.90;;
22034;SDS011;11181;51.002;4.356;2023-03-23T02:52:40;3.63;;;1.60;;
22034;SDS011;11181;51.002;4.356;2023-03-23T02:55:09;3.67;;;1.60;;
22034;SDS011;11181;51.002;4.356;2023-03-23T02:57:39;3.33;;;1.40;;
22034;SDS011;11181;51.002;4.356;2023-03-23T03:00:07;3.60;;;1.63;;
22034;SDS011;11181;51.002;4.356;2023-03-23T03:02:39;2.40;;;1.60;;
22034;SDS011;11181;51.002;4.356;2023-03-23T03:05:10;7.37;;;1.80;;
22034;SDS011;11181;51.002;4.356;2023-03-23T03:07:49;4.80;;;1.53;;
22034;SDS011;11181;51.002;4.356;2023-03-23T03:10:30;2.13;;;1.23;;
22034;SDS011;11181;51.002;4.356;2023-03-23T03:13:03;4.03;;;1.47;;
22034;SDS011;11181;51.002;4.356;2023-03-23T03:15:37;4.93;;;1.53;;
22034;SDS011;11181;51.002;4.356;2023-03-23T03:18:10;9.23;;;2.37;;
22034;SDS011;11181;51.002;4.356;2023-03-23T03:20:43;1.63;;;1.23;;
22034;SDS011;11181;51.002;4.356;2023-03-23T03:23:13;2.80;;;1.33;;
22034;SDS011;11181;51.002;4.356;2023-03-23T03:25:42;6.77;;;1.20;;
22034;SDS011;11181;51.002;4.356;2023-03-23T03:28:13;5.97;;;2.90;;
22034;SDS011;11181;51.002;4.356;2023-03-23T03:30:41;1.53;;;1.20;;
22034;SDS011;11181;51.002;4.356;2023-03-23T03:33:11;3.13;;;1.30;;
22034;SDS011;11181;51.002;4.356;2023-03-23T03:35:39;2.13;;;1.20;;
22034;SDS011;11181;51.002;4.356;2023-03-23T03:38:09;2.90;;;1.40;;
22034;SDS011;11181;51.002;4.356;2023-03-23T03:40:37;2.60;;;1.10;;
22034;SDS011;11181;51.002;4.356;2023-03-23T03:43:04;4.77;;;1.73;;
22034;SDS011;11181;51.002;4.356;2023-03-23T03:45:33;3.13;;;1.30;;
22034;SDS011;11181;51.002;4.356;2023-03-23T03:48:00;3.20;;;1.17;;
22034;SDS011;11181;51.002;4.356;2023-03-23T03:50:27;3.20;;;1.43;;
22034;SDS011;11181;51.002;4.356;2023-03-23T03:52:55;3.10;;;1.40;;
22034;SDS011;11181;51.002;4.356;2023-03-23T03:55:24;1.73;;;1.00;;
22034;SDS011;11181;51.002;4.356;2023-03-23T03:57:53;3.33;;;1.20;;
22034;SDS011;11181;51.002;4.356;2023-03-23T04:00:20;1.43;;;1.23;;
22034;SDS011;11181;51.002;4.356;2023-03-23T04:02:48;5.20;;;1.33;;
22034;SDS011;11181;51.002;4.356;2023-03-23T04:05:19;2.47;;;1.10;;
22034;SDS011;11181;51.002;4.356;2023-03-23T04:07:46;5.27;;;1.47;;
22034;SDS011;11181;51.002;4.356;2023-03-23T04:10:16;2.67;;;1.10;;
22034;SDS011;11181;51.002;4.356;2023-03-23T04:12:48;6.23;;;1.57;;
22034;SDS011;11181;51.002;4.356;2023-03-23T04:15:15;2.00;;;1.00;;
22034;SDS011;11181;51.002;4.356;2023-03-23T04:17:42;2.60;;;1.27;;
22034;SDS011;11181;51.002;4.356;2023-03-23T04:20:09;4.97;;;2.27;;
22034;SDS011;11181;51.002;4.356;2023-03-23T04:22:42;5.97;;;1.60;;
22034;SDS011;11181;51.002;4.356;2023-03-23T04:25:10;4.50;;;1.50;;
22034;SDS011;11181;51.002;4.356;2023-03-23T04:27:39;3.13;;;1.50;;
22034;SDS011;11181;51.002;4.356;2023-03-23T04:30:13;6.97;;;1.20;;
22034;SDS011;11181;51.002;4.356;2023-03-23T04:32:40;3.10;;;1.40;;
22034;SDS011;11181;51.002;4.356;2023-03-23T04:35:09;3.63;;;1.20;;
22034;SDS011;11181;51.002;4.356;2023-03-23T04:37:37;3.27;;;1.03;;
22034;SDS011;11181;51.002;4.356;2023-03-23T04:40:06;6.23;;;1.47;;
22034;SDS011;11181;51.002;4.356;2023-03-23T04:42:36;4.03;;;1.20;;
22034;SDS011;11181;51.002;4.356;2023-03-23T04:45:05;6.93;;;1.93;;
22034;SDS011;11181;51.002;4.356;2023-03-23T04:47:35;7.10;;;1.60;;
22034;SDS011;11181;51.002;4.356;2023-03-23T04:50:06;5.23;;;1.97;;
22034;SDS011;11181;51.002;4.356;2023-03-23T04:52:34;4.27;;;1.03;;
22034;SDS011;11181;51.002;4.356;2023-03-23T04:55:03;3.83;;;1.30;;
22034;SDS011;11181;51.002;4.356;2023-03-23T04:57:31;6.97;;;1.57;;
22034;SDS011;11181;51.002;4.356;2023-03-23T05:00:00;3.43;;;1.57;;
22034;SDS011;11181;51.002;4.356;2023-03-23T05:02:30;3.27;;;1.63;;
22034;SDS011;11181;51.002;4.356;2023-03-23T05:05:00;7.27;;;2.33;;
22034;SDS011;11181;51.002;4.356;2023-03-23T05:07:27;5.23;;;1.43;;
22034;SDS011;11181;51.002;4.356;2023-03-23T05:09:54;4.93;;;1.30;;
22034;SDS011;11181;51.002;4.356;2023-03-23T05:12:21;3.73;;;1.20;;
22034;SDS011;11181;51.002;4.356;2023-03-23T05:14:48;4.10;;;1.40;;
22034;SDS011;11181;51.002;4.356;2023-03-23T05:17:15;5.33;;;1.30;;
22034;SDS011;11181;51.002;4.356;2023-03-23T05:19:43;3.20;;;1.40;;
22034;SDS011;11181;51.002;4.356;2023-03-23T05:22:13;3.03;;;1.50;;
22034;SDS011;11181;51.002;4.356;2023-03-23T05:24:40;4.80;;;1.70;;
22034;SDS011;11181;51.002;4.356;2023-03-23T05:27:08;6.17;;;1.23;;
22034;SDS011;11181;51.002;4.356;2023-03-23T05:29:35;6.30;;;1.47;;
22034;SDS011;11181;51.002;4.356;2023-03-23T05:32:02;2.80;;;1.50;;
22034;SDS011;11181;51.002;4.356;2023-03-23T05:34:30;5.00;;;1.50;;
22034;SDS011;11181;51.002;4.356;2023-03-23T05:36:58;4.90;;;1.13;;
22034;SDS011;11181;51.002;4.356;2023-03-23T05:39:27;2.93;;;0.90;;
22034;SDS011;11181;51.002;4.356;2023-03-23T05:41:54;3.33;;;1.20;;
22034;SDS011;11181;51.002;4.356;2023-03-23T05:44:21;6.90;;;1.90;;
22034;SDS011;11181;51.002;4.356;2023-03-23T05:46:49;1.33;;;1.00;;
22034;SDS011;11181;51.002;4.356;2023-03-23T05:49:16;3.70;;;1.23;;
22034;SDS011;11181;51.002;4.356;2023-03-23T05:51:43;4.43;;;2.17;;
22034;SDS011;11181;51.002;4.356;2023-03-23T05:54:12;4.73;;;1.70;;
22034;SDS011;11181;51.002;4.356;2023-03-23T05:56:40;5.53;;;1.40;;
22034;SDS011;11181;51.002;4.356;2023-03-23T05:59:08;3.60;;;1.10;;
22034;SDS011;11181;51.002;4.356;2023-03-23T06:01:36;3.57;;;1.80;;
22034;SDS011;11181;51.002;4.356;2023-03-23T06:04:03;3.13;;;1.30;;
22034;SDS011;11181;51.002;4.356;2023-03-23T06:06:30;3.07;;;1.53;;
22034;SDS011;11181;51.002;4.356;2023-03-23T06:08:58;4.53;;;1.37;;
22034;SDS011;11181;51.002;4.356;2023-03-23T06:11:25;2.97;;;1.37;;
22034;SDS011;11181;51.002;4.356;2023-03-23T06:13:53;5.33;;;1.40;;
22034;SDS011;11181;51.002;4.356;2023-03-23T06:16:20;4.27;;;1.40;;
22034;SDS011;11181;51.002;4.356;2023-03-23T06:18:48;4.20;;;1.00;;
22034;SDS011;11181;51.002;4.356;2023-03-23T06:21:15;6.50;;;1.30;;
22034;SDS011;11181;51.002;4.356;2023-03-23T06:23:43;3.30;;;1.20;;
22034;SDS011;11181;51.002;4.356;2023-03-23T06:26:11;4.07;;;1.27;;
22034;SDS011;11181;51.002;4.356;2023-03-23T06:28:41;6.03;;;1.40;;
22034;SDS011;11181;51.002;4.356;2023-03-23T06:31:10;8.90;;;1.60;;
22034;SDS011;11181;51.002;4.356;2023-03-23T06:33:39;3.80;;;0.87;;
22034;SDS011;11181;51.002;4.356;2023-03-23T06:36:06;1.17;;;0.60;;
22034;SDS011;11181;51.002;4.356;2023-03-23T06:38:36;0.47;;;0.47;;
22034;SDS011;11181;51.002;4.356;2023-03-23T06:41:03;2.30;;;0.60;;
22034;SDS011;11181;51.002;4.356;2023-03-23T06:43:30;3.13;;;0.60;;
22034;SDS011;11181;51.002;4.356;2023-03-23T06:45:58;1.37;;;0.83;;
22034;SDS011;11181;51.002;4.356;2023-03-23T06:48:28;1.17;;;0.60;;
22034;SDS011;11181;51.002;4.356;2023-03-23T06:50:55;4.80;;;1.00;;
22034;SDS011;11181;51.002;4.356;2023-03-23T06:53:22;4.30;;;1.00;;
22034;SDS011;11181;51.002;4.356;2023-03-23T06:55:49;2.40;;;1.00;;
22034;SDS011;11181;51.002;4.356;2023-03-23T06:58:16;3.33;;;0.83;;
22034;SDS011;11181;51.002;4.356;2023-03-23T07:00:43;2.60;;;0.83;;
22034;SDS011;11181;51.002;4.356;2023-03-23T07:03:10;1.23;;;0.60;;
22034;SDS011;11181;51.002;4.356;2023-03-23T07:05:39;3.47;;;0.73;;
22034;SDS011;11181;51.002;4.356;2023-03-23T07:08:06;4.77;;;1.00;;
22034;SDS011;11181;51.002;4.356;2023-03-23T07:10:33;2.77;;;0.67;;
22034;SDS011;11181;51.002;4.356;2023-03-23T07:13:00;1.23;;;0.80;;
22034;SDS011;11181;51.002;4.356;2023-03-23T07:15:27;1.77;;;0.63;;
22034;SDS011;11181;51.002;4.356;2023-03-23T07:17:54;4.57;;;0.77;;
22034;SDS011;11181;51.002;4.356;2023-03-23T07:20:20;2.50;;;0.80;;
22034;SDS011;11181;51.002;4.356;2023-03-23T07:22:49;1.33;;;0.60;;
22034;SDS011;11181;51.002;4.356;2023-03-23T07:25:16;2.00;;;0.60;;
22034;SDS011;11181;51.002;4.356;2023-03-23T07:27:44;1.40;;;0.60;;
22034;SDS011;11181;51.002;4.356;2023-03-23T07:30:12;1.30;;;0.50;;
22034;SDS011;11181;51.002;4.356;2023-03-23T07:32:40;4.17;;;1.23;;
22034;SDS011;11181;51.002;4.356;2023-03-23T07:35:07;2.23;;;0.50;;
22034;SDS011;11181;51.002;4.356;2023-03-23T07:37:35;1.93;;;0.60;;
22034;SDS011;11181;51.002;4.356;2023-03-23T07:40:03;3.33;;;0.83;;
22034;SDS011;11181;51.002;4.356;2023-03-23T07:42:40;4.17;;;1.00;;
22034;SDS011;11181;51.002;4.356;2023-03-23T07:45:08;0.60;;;0.50;;
22034;SDS011;11181;51.002;4.356;2023-03-23T07:47:36;1.90;;;0.57;;
22034;SDS011;11181;51.002;4.356;2023-03-23T07:50:03;1.83;;;0.90;;
22034;SDS011;11181;51.002;4.356;2023-03-23T07:52:31;2.00;;;0.73;;
22034;SDS011;11181;51.002;4.356;2023-03-23T07:54:58;2.23;;;0.60;;
22034;SDS011;11181;51.002;4.356;2023-03-23T07:57:28;1.97;;;0.67;;
22034;SDS011;11181;51.002;4.356;2023-03-23T07:59:55;1.60;;;0.80;;
22034;SDS011;11181;51.002;4.356;2023-03-23T08:02:23;1.33;;;0.47;;
22034;SDS011;11181;51.002;4.356;2023-03-23T08:04:51;1.50;;;0.47;;
22034;SDS011;11181;51.002;4.356;2023-03-23T08:07:19;1.90;;;0.77;;
22034;SDS011;11181;51.002;4.356;2023-03-23T08:09:46;1.03;;;0.70;;
22034;SDS011;11181;51.002;4.356;2023-03-23T08:12:14;1.47;;;0.70;;
22034;SDS011;11181;51.002;4.356;2023-03-23T08:14:43;1.10;;;0.70;;
22034;SDS011;11181;51.002;4.356;2023-03-23T08:17:10;3.90;;;0.90;;
22034;SDS011;11181;51.002;4.356;2023-03-23T08:19:37;1.73;;;0.77;;
22034;SDS011;11181;51.002;4.356;2023-03-23T08:22:05;2.00;;;1.70;;
22034;SDS011;11181;51.002;4.356;2023-03-23T08:24:33;3.93;;;1.33;;
22034;SDS011;11181;51.002;4.356;2023-03-23T08:27:00;2.17;;;1.27;;
22034;SDS011;11181;51.002;4.356;2023-03-23T08:29:27;4.07;;;1.20;;
22034;SDS011;11181;51.002;4.356;2023-03-23T08:31:55;2.47;;;1.20;;
22034;SDS011;11181;51.002;4.356;2023-03-23T08:34:23;3.57;;;1.00;;
22034;SDS011;11181;51.002;4.356;2023-03-23T08:36:50;4.67;;;1.20;;
22034;SDS011;11181;51.002;4.356;2023-03-23T08:39:18;2.57;;;1.60;;
22034;SDS011;11181;51.002;4.356;2023-03-23T08:41:45;2.53;;;1.17;;
22034;SDS011;11181;51.002;4.356;2023-03-23T08:44:12;2.67;;;1.00;;
22034;SDS011;11181;51.002;4.356;2023-03-23T08:46:38;2.03;;;0.90;;
22034;SDS011;11181;51.002;4.356;2023-03-23T08:49:07;2.37;;;0.87;;
22034;SDS011;11181;51.002;4.356;2023-03-23T08:51:34;5.30;;;1.40;;
22034;SDS011;11181;51.002;4.356;2023-03-23T08:54:02;2.10;;;0.90;;
22034;SDS011;11181;51.002;4.356;2023-03-23T08:56:29;2.80;;;0.90;;
22034;SDS011;11181;51.002;4.356;2023-03-23T08:58:56;3.83;;;1.57;;
22034;SDS011;11181;51.002;4.356;2023-03-23T09:01:23;3.17;;;0.90;;
22034;SDS011;11181;51.002;4.356;2023-03-23T09:03:51;2.43;;;1.20;;
22034;SDS011;11181;51.002;4.356;2023-03-23T09:06:20;1.90;;;1.00;;
22034;SDS011;11181;51.002;4.356;2023-03-23T09:08:47;2.77;;;1.20;;
22034;SDS011;11181;51.002;4.356;2023-03-23T09:11:15;2.93;;;1.10;;
22034;SDS011;11181;51.002;4.356;2023-03-23T09:13:42;5.27;;;1.53;;
22034;SDS011;11181;51.002;4.356;2023-03-23T09:16:09;2.17;;;1.43;;
22034;SDS011;11181;51.002;4.356;2023-03-23T09:18:36;1.63;;;0.90;;
22034;SDS011;11181;51.002;4.356;2023-03-23T09:21:03;3.47;;;1.63;;
22034;SDS011;11181;51.002;4.356;2023-03-23T09:23:32;2.27;;;1.07;;
22034;SDS011;11181;51.002;4.356;2023-03-23T09:26:00;4.77;;;2.07;;
22034;SDS011;11181;51.002;4.356;2023-03-23T09:28:28;4.30;;;1.37;;
22034;SDS011;11181;51.002;4.356;2023-03-23T09:30:56;3.47;;;1.07;;
22034;SDS011;11181;51.002;4.356;2023-03-23T09:33:24;3.53;;;2.37;;
22034;SDS011;11181;51.002;4.356;2023-03-23T09:35:52;2.67;;;0.93;;
22034;SDS011;11181;51.002;4.356;2023-03-23T09:38:19;3.30;;;1.47;;
22034;SDS011;11181;51.002;4.356;2023-03-23T09:40:51;2.73;;;1.10;;
22034;SDS011;11181;51.002;4.356;2023-03-23T09:43:31;2.33;;;1.10;;
22034;SDS011;11181;51.002;4.356;2023-03-23T09:46:16;1.97;;;1.10;;
22034;SDS011;11181;51.002;4.356;2023-03-23T09:48:53;5.83;;;1.33;;
22034;SDS011;11181;51.002;4.356;2023-03-23T09:51:28;1.77;;;0.97;;
22034;SDS011;11181;51.002;4.356;2023-03-23T09:54:05;2.93;;;0.90;;
22034;SDS011;11181;51.002;4.356;2023-03-23T09:56:38;2.40;;;0.80;;
22034;SDS011;11181;51.002;4.356;2023-03-23T09:59:09;2.23;;;1.23;;
22034;SDS011;11181;51.002;4.356;2023-03-23T10:01:40;1.13;;;1.03;;
22034;SDS011;11181;51.002;4.356;2023-03-23T10:04:14;3.13;;;1.10;;
22034;SDS011;11181;51.002;4.356;2023-03-23T10:06:48;2.87;;;1.30;;
22034;SDS011;11181;51.002;4.356;2023-03-23T10:09:16;3.50;;;1.33;;
22034;SDS011;11181;51.002;4.356;2023-03-23T10:11:49;4.57;;;2.57;;
22034;SDS011;11181;51.002;4.356;2023-03-23T10:14:28;2.57;;;1.40;;
22034;SDS011;11181;51.002;4.356;2023-03-23T10:17:03;2.33;;;1.50;;
22034;SDS011;11181;51.002;4.356;2023-03-23T10:19:46;2.67;;;1.10;;
22034;SDS011;11181;51.002;4.356;2023-03-23T10:22:20;3.27;;;1.07;;
22034;SDS011;11181;51.002;4.356;2023-03-23T10:24:54;2.87;;;1.97;;
22034;SDS011;11181;51.002;4.356;2023-03-23T10:27:31;3.50;;;1.17;;
22034;SDS011;11181;51.002;4.356;2023-03-23T10:30:11;5.20;;;1.50;;
22034;SDS011;11181;51.002;4.356;2023-03-23T10:32:43;3.80;;;1.43;;
22034;SDS011;11181;51.002;4.356;2023-03-23T10:35:15;2.03;;;1.20;;
22034;SDS011;11181;51.002;4.356;2023-03-23T10:37:47;3.27;;;1.50;;
22034;SDS011;11181;51.002;4.356;2023-03-23T10:40:17;3.63;;;1.60;;
22034;SDS011;11181;51.002;4.356;2023-03-23T10:42:50;2.43;;;1.20;;
22034;SDS011;11181;51.002;4.356;2023-03-23T10:45:20;3.23;;;1.30;;
22034;SDS011;11181;51.002;4.356;2023-03-23T10:47:51;3.70;;;1.43;;
22034;SDS011;11181;51.002;4.356;2023-03-23T10:50:22;3.53;;;2.03;;
22034;SDS011;11181;51.002;4.356;2023-03-23T10:52:52;2.87;;;1.10;;
22034;SDS011;11181;51.002;4.356;2023-03-23T10:55:22;2.60;;;1.30;;
22034;SDS011;11181;51.002;4.356;2023-03-23T10:58:00;1.60;;;1.20;;
22034;SDS011;11181;51.002;4.356;2023-03-23T11:00:28;3.70;;;1.23;;
22034;SDS011;11181;51.002;4.356;2023-03-23T11:02:57;6.97;;;1.83;;
22034;SDS011;11181;51.002;4.356;2023-03-23T11:05:31;7.73;;;2.00;;
22034;SDS011;11181;51.002;4.356;2023-03-23T11:08:01;2.07;;;1.50;;
22034;SDS011;11181;51.002;4.356;2023-03-23T11:10:34;3.20;;;1.30;;
22034;SDS011;11181;51.002;4.356;2023-03-23T11:13:04;6.13;;;2.07;;
22034;SDS011;11181;51.002;4.356;2023-03-23T11:15:37;5.60;;;1.60;;
22034;SDS011;11181;51.002;4.356;2023-03-23T11:18:06;8.13;;;1.90;;
22034;SDS011;11181;51.002;4.356;2023-03-23T11:20:39;5.30;;;2.30;;
22034;SDS011;11181;51.002;4.356;2023-03-23T11:23:08;5.30;;;1.97;;
22034;SDS011;11181;51.002;4.356;2023-03-23T11:25:55;6.03;;;2.50;;
22034;SDS011;11181;51.002;4.356;2023-03-23T11:28:34;7.07;;;2.33;;
22034;SDS011;11181;51.002;4.356;2023-03-23T11:31:08;7.70;;;2.33;;
22034;SDS011;11181;51.002;4.356;2023-03-23T11:33:46;5.17;;;1.87;;
22034;SDS011;11181;51.002;4.356;2023-03-23T11:36:19;5.83;;;1.90;;
22034;SDS011;11181;51.002;4.356;2023-03-23T11:38:52;4.00;;;1.50;;
22034;SDS011;11181;51.002;4.356;2023-03-23T11:41:22;4.70;;;1.80;;
22034;SDS011;11181;51.002;4.356;2023-03-23T11:43:52;9.00;;;2.20;;
22034;SDS011;11181;51.002;4.356;2023-03-23T11:46:26;4.40;;;1.77;;
22034;SDS011;11181;51.002;4.356;2023-03-23T11:49:01;6.93;;;2.23;;
22034;SDS011;11181;51.002;4.356;2023-03-23T11:51:33;4.67;;;1.93;;
22034;SDS011;11181;51.002;4.356;2023-03-23T11:54:06;4.67;;;1.87;;
22034;SDS011;11181;51.002;4.356;2023-03-23T11:56:41;6.80;;;2.33;;
22034;SDS011;11181;51.002;4.356;2023-03-23T11:59:12;2.40;;;1.50;;
22034;SDS011;11181;51.002;4.356;2023-03-23T12:01:46;8.10;;;1.97;;
22034;SDS011;11181;51.002;4.356;2023-03-23T12:04:24;4.73;;;1.77;;
22034;SDS011;11181;51.002;4.356;2023-03-23T12:07:06;6.73;;;2.10;;
22034;SDS011;11181;51.002;4.356;2023-03-23T12:09:58;3.40;;;1.50;;
22034;SDS011;11181;51.002;4.356;2023-03-23T12:17:49;2.30;;;1.37;;
22034;SDS011;11181;51.002;4.356;2023-03-23T12:43:23;3.27;;;1.30;;
22034;SDS011;11181;51.002;4.356;2023-03-23T12:46:00;6.73;;;1.27;;
22034;SDS011;11181;51.002;4.356;2023-03-23T12:48:37;4.97;;;1.10;;
22034;SDS011;11181;51.002;4.356;2023-03-23T12:51:09;6.37;;;1.73;;
22034;SDS011;11181;51.002;4.356;2023-03-23T12:53:46;9.20;;;1.83;;
22034;SDS011;11181;51.002;4.356;2023-03-23T12:56:20;5.87;;;1.80;;
22034;SDS011;11181;51.002;4.356;2023-03-23T12:58:53;4.87;;;1.13;;
22034;SDS011;11181;51.002;4.356;2023-03-23T13:01:28;4.83;;;1.20;;
22034;SDS011;11181;51.002;4.356;2023-03-23T13:03:59;5.53;;;2.00;;
22034;SDS011;11181;51.002;4.356;2023-03-23T13:06:31;3.30;;;1.60;;
22034;SDS011;11181;51.002;4.356;2023-03-23T13:09:02;4.37;;;1.27;;
22034;SDS011;11181;51.002;4.356;2023-03-23T14:13:49;4.73;;;1.27;;
22034;SDS011;11181;51.002;4.356;2023-03-23T14:16:28;4.50;;;2.77;;
22034;SDS011;11181;51.002;4.356;2023-03-23T14:18:59;8.30;;;1.80;;
22034;SDS011;11181;51.002;4.356;2023-03-23T14:21:32;6.00;;;1.40;;
22034;SDS011;11181;51.002;4.356;2023-03-23T14:24:05;4.47;;;1.47;;
22034;SDS011;11181;51.002;4.356;2023-03-23T14:26:36;4.97;;;1.70;;
22034;SDS011;11181;51.002;4.356;2023-03-23T14:29:05;2.17;;;1.37;;
22034;SDS011;11181;51.002;4.356;2023-03-23T14:31:34;3.47;;;1.20;;
22034;SDS011;11181;51.002;4.356;2023-03-23T14:34:03;4.30;;;1.30;;
22034;SDS011;11181;51.002;4.356;2023-03-23T14:36:33;4.13;;;1.50;;
22034;SDS011;11181;51.002;4.356;2023-03-23T14:39:02;6.43;;;1.60;;
22034;SDS011;11181;51.002;4.356;2023-03-23T14:41:33;4.90;;;1.30;;
22034;SDS011;11181;51.002;4.356;2023-03-23T14:44:02;3.80;;;1.40;;
22034;SDS011;11181;51.002;4.356;2023-03-23T14:46:33;4.77;;;1.33;;
22034;SDS011;11181;51.002;4.356;2023-03-23T14:49:01;8.23;;;1.93;;
22034;SDS011;11181;51.002;4.356;2023-03-23T14:51:29;4.83;;;1.63;;
22034;SDS011;11181;51.002;4.356;2023-03-23T14:53:57;6.63;;;2.23;;
22034;SDS011;11181;51.002;4.356;2023-03-23T14:56:31;5.17;;;1.37;;
22034;SDS011;11181;51.002;4.356;2023-03-23T14:59:03;5.40;;;1.67;;
22034;SDS011;11181;51.002;4.356;2023-03-23T15:01:33;4.60;;;1.70;;
22034;SDS011;11181;51.002;4.356;2023-03-23T15:04:03;7.17;;;1.93;;
22034;SDS011;11181;51.002;4.356;2023-03-23T15:06:33;6.57;;;1.97;;
22034;SDS011;11181;51.002;4.356;2023-03-23T15:09:02;3.83;;;1.50;;
22034;SDS011;11181;51.002;4.356;2023-03-23T15:11:31;7.83;;;2.33;;
22034;SDS011;11181;51.002;4.356;2023-03-23T15:14:02;4.97;;;2.00;;
22034;SDS011;11181;51.002;4.356;2023-03-23T15:16:36;4.57;;;1.73;;
22034;SDS011;11181;51.002;4.356;2023-03-23T15:19:11;5.63;;;1.53;;
22034;SDS011;11181;51.002;4.356;2023-03-23T15:21:46;6.47;;;2.30;;
22034;SDS011;11181;51.002;4.356;2023-03-23T15:24:26;4.43;;;2.10;;
22034;SDS011;11181;51.002;4.356;2023-03-23T15:27:02;4.83;;;1.83;;
22034;SDS011;11181;51.002;4.356;2023-03-23T15:29:45;5.70;;;1.77;;
22034;SDS011;11181;51.002;4.356;2023-03-23T15:32:25;4.77;;;1.93;;
22034;SDS011;11181;51.002;4.356;2023-03-23T15:34:54;5.93;;;1.77;;
22034;SDS011;11181;51.002;4.356;2023-03-23T15:37:24;5.07;;;1.90;;
22034;SDS011;11181;51.002;4.356;2023-03-23T15:39:53;9.33;;;2.80;;
22034;SDS011;11181;51.002;4.356;2023-03-23T15:42:22;7.77;;;1.83;;
22034;SDS011;11181;51.002;4.356;2023-03-23T15:45:05;8.20;;;1.90;;
22034;SDS011;11181;51.002;4.356;2023-03-23T15:47:48;4.07;;;1.43;;
22034;SDS011;11181;51.002;4.356;2023-03-23T15:50:16;4.43;;;1.50;;
22034;SDS011;11181;51.002;4.356;2023-03-23T15:52:45;6.67;;;2.27;;
22034;SDS011;11181;51.002;4.356;2023-03-23T15:55:20;9.80;;;2.53;;
22034;SDS011;11181;51.002;4.356;2023-03-23T15:57:49;7.27;;;2.47;;
22034;SDS011;11181;51.002;4.356;2023-03-23T16:00:17;7.80;;;2.70;;
22034;SDS011;11181;51.002;4.356;2023-03-23T16:02:48;6.13;;;1.93;;
22034;SDS011;11181;51.002;4.356;2023-03-23T16:05:19;7.27;;;2.20;;
22034;SDS011;11181;51.002;4.356;2023-03-23T16:07:46;8.03;;;2.87;;
22034;SDS011;11181;51.002;4.356;2023-03-23T16:10:14;6.93;;;2.40;;
22034;SDS011;11181;51.002;4.356;2023-03-23T16:12:43;6.23;;;2.10;;
22034;SDS011;11181;51.002;4.356;2023-03-23T16:15:10;5.60;;;2.40;;
22034;SDS011;11181;51.002;4.356;2023-03-23T16:17:37;6.27;;;2.83;;
22034;SDS011;11181;51.002;4.356;2023-03-23T16:20:10;8.90;;;2.50;;
22034;SDS011;11181;51.002;4.356;2023-03-23T16:22:38;7.50;;;1.90;;
22034;SDS011;11181;51.002;4.356;2023-03-23T16:25:06;7.10;;;2.73;;
22034;SDS011;11181;51.002;4.356;2023-03-23T16:27:33;8.50;;;2.47;;
22034;SDS011;11181;51.002;4.356;2023-03-23T16:30:01;4.67;;;1.80;;
22034;SDS011;11181;51.002;4.356;2023-03-23T16:32:29;5.50;;;1.50;;
22034;SDS011;11181;51.002;4.356;2023-03-23T16:34:56;4.53;;;1.43;;
22034;SDS011;11181;51.002;4.356;2023-03-23T16:37:24;11.17;;;2.17;;